createdAt,value
2018-07-09T00:01:10.463Z,55.42
2018-07-09T00:03:39.402Z,56.03
2018-07-09T00:06:08.310Z,56.22
2018-07-09T00:08:37.576Z,57.03
2018-07-09T00:11:07.565Z,57.30
2018-07-09T00:13:37.805Z,57.31
2018-07-09T00:16:06.745Z,57.44
2018-07-09T00:18:35.917Z,57.95
2018-07-09T00:21:04.924Z,58.80
2018-07-09T00:23:33.625Z,58.98
2018-07-09T00:26:02.714Z,59.09
2018-07-09T00:28:31.709Z,59.49
2018-07-09T00:31:00.616Z,60.15
2018-07-09T00:33:29.577Z,60.58
2018-07-09T00:35:58.426Z,60.54
2018-07-09T00:38:27.684Z,60.94
2018-07-09T00:40:56.615Z,61.19
2018-07-09T00:43:25.639Z,61.32
2018-07-09T00:45:54.441Z,61.34
2018-07-09T00:48:23.565Z,60.99
2018-07-09T00:50:52.620Z,60.35
2018-07-09T00:53:21.624Z,60.11
2018-07-09T00:55:50.528Z,60.04
2018-07-09T00:58:19.617Z,60.41
2018-07-09T01:00:49.009Z,61.00
2018-07-09T01:03:17.956Z,62.11
2018-07-09T01:05:46.821Z,62.72
2018-07-09T01:08:15.887Z,62.80
2018-07-09T01:10:55.722Z,63.45
2018-07-09T01:13:35.648Z,63.49
2018-07-09T01:16:04.486Z,63.91
2018-07-09T01:18:33.827Z,63.88
2018-07-09T01:21:02.724Z,63.84
2018-07-09T01:23:31.521Z,63.60
2018-07-09T01:26:00.961Z,63.82
2018-07-09T01:28:29.940Z,64.07
2018-07-09T01:30:58.838Z,63.51
2018-07-09T01:33:27.748Z,63.66
2018-07-09T01:35:56.826Z,63.28
2018-07-09T01:38:25.767Z,63.54
2018-07-09T01:40:54.481Z,64.20
2018-07-09T01:43:23.531Z,64.41
2018-07-09T01:45:52.428Z,64.57
2018-07-09T01:48:21.286Z,64.62
2018-07-09T01:50:50.177Z,64.14
2018-07-09T01:53:19.105Z,64.16
2018-07-09T01:55:48.521Z,63.77
2018-07-09T01:58:17.255Z,63.04
2018-07-09T02:00:46.067Z,63.04
2018-07-09T02:03:15.031Z,63.31
2018-07-09T02:05:44.368Z,63.36
2018-07-09T02:08:13.212Z,63.58
2018-07-09T02:10:42.170Z,63.58
2018-07-09T02:13:11.174Z,63.56
2018-07-09T02:15:40.093Z,63.91
2018-07-09T02:18:09.058Z,64.12
2018-07-09T02:20:37.788Z,64.13
2018-07-09T02:23:06.649Z,64.18
2018-07-09T02:25:35.582Z,64.34
2018-07-09T02:28:04.456Z,64.61
2018-07-09T02:30:33.669Z,64.98
2018-07-09T02:33:02.627Z,64.81
2018-07-09T02:35:31.534Z,64.83
2018-07-09T02:38:00.329Z,65.19
2018-07-09T02:40:29.319Z,64.90
2018-07-09T02:42:58.234Z,65.25
2018-07-09T02:45:27.088Z,65.43
2018-07-09T02:47:56.214Z,66.04
2018-07-09T02:50:24.976Z,65.51
2018-07-09T02:52:54.232Z,65.64
2018-07-09T02:55:23.187Z,65.75
2018-07-09T02:57:52.303Z,66.02
2018-07-09T03:00:21.285Z,66.15
2018-07-09T03:02:50.198Z,66.09
2018-07-09T03:05:19.378Z,66.52
2018-07-09T03:07:48.134Z,66.47
2018-07-09T03:10:17.077Z,66.42
2018-07-09T03:12:45.982Z,66.29
2018-07-09T03:15:14.939Z,66.57
2018-07-09T03:17:44.043Z,67.30
2018-07-09T03:20:13.216Z,67.09
2018-07-09T03:22:42.231Z,66.68
2018-07-09T03:25:11.145Z,67.05
2018-07-09T03:27:40.007Z,67.25
2018-07-09T03:30:09.007Z,67.30
2018-07-09T03:32:37.947Z,67.04
2018-07-09T03:35:06.827Z,66.99
2018-07-09T03:37:35.564Z,66.96
2018-07-09T03:40:04.395Z,67.23
2018-07-09T03:42:33.364Z,66.75
2018-07-09T03:45:02.397Z,67.06
2018-07-09T03:47:31.452Z,67.15
2018-07-09T03:50:00.183Z,66.79
2018-07-09T03:52:29.331Z,66.78
2018-07-09T03:54:58.217Z,66.78
2018-07-09T03:57:27.097Z,66.83
2018-07-09T03:59:56.152Z,66.77
2018-07-09T04:02:25.023Z,66.63
2018-07-09T04:04:53.939Z,66.39
2018-07-09T04:07:22.910Z,66.61
2018-07-09T04:09:52.205Z,66.74
2018-07-09T04:12:21.116Z,66.04
2018-07-09T04:14:49.873Z,66.47
2018-07-09T04:17:18.859Z,66.25
2018-07-09T04:19:48.092Z,66.19
2018-07-09T04:22:17.164Z,66.45
2018-07-09T04:24:45.965Z,66.48
2018-07-09T04:27:14.761Z,65.87
2018-07-09T04:29:43.570Z,65.80
2018-07-09T04:32:12.707Z,65.73
2018-07-09T04:34:41.696Z,65.37
2018-07-09T04:37:10.560Z,65.15
2018-07-09T04:39:39.476Z,65.13
2018-07-09T04:42:08.593Z,64.86
2018-07-09T04:44:37.463Z,65.13
2018-07-09T04:47:06.909Z,65.29
2018-07-09T04:49:35.761Z,64.66
2018-07-09T04:52:04.985Z,64.51
2018-07-09T04:54:34.262Z,64.60
2018-07-09T04:57:03.310Z,64.37
2018-07-09T04:59:32.333Z,64.35
2018-07-09T05:02:01.504Z,64.16
2018-07-09T05:04:30.252Z,64.26
2018-07-09T05:09:27.638Z,64.34
2018-07-09T05:11:56.794Z,64.30
2018-07-09T05:14:25.489Z,63.65
2018-07-09T05:16:54.409Z,63.33
2018-07-09T05:19:23.336Z,63.73
2018-07-09T05:21:52.255Z,63.28
2018-07-09T05:24:20.999Z,63.46
2018-07-09T05:26:50.248Z,63.04
2018-07-09T05:29:19.301Z,62.86
2018-07-09T05:31:48.655Z,62.67
2018-07-09T05:34:17.795Z,62.20
2018-07-09T05:36:46.650Z,62.35
2018-07-09T05:39:15.609Z,62.67
2018-07-09T05:41:44.744Z,62.73
2018-07-09T05:44:13.876Z,61.92
2018-07-09T05:46:42.959Z,61.21
2018-07-09T05:49:12.653Z,60.80
2018-07-09T05:51:42.242Z,60.67
2018-07-09T05:54:11.246Z,60.28
2018-07-09T05:56:40.459Z,60.17
2018-07-09T05:59:09.280Z,60.19
2018-07-09T06:01:38.141Z,59.27
2018-07-09T06:04:08.009Z,59.13
2018-07-09T06:06:37.153Z,58.26
2018-07-09T06:09:08.212Z,58.15
2018-07-09T06:11:37.477Z,57.08
2018-07-09T06:14:06.905Z,56.92
2018-07-09T06:16:35.700Z,56.46
2018-07-09T06:19:04.530Z,56.02
2018-07-09T06:21:33.381Z,56.21
2018-07-09T06:24:02.442Z,56.70
2018-07-09T06:26:31.303Z,56.24
2018-07-09T06:29:00.118Z,56.08
2018-07-09T06:31:28.983Z,55.57
2018-07-09T06:33:57.812Z,56.17
2018-07-09T06:36:26.766Z,55.42
2018-07-09T06:38:55.662Z,55.71
2018-07-09T06:41:24.664Z,55.94
2018-07-09T06:43:53.514Z,56.49
2018-07-09T06:46:22.418Z,55.17
2018-07-09T06:48:51.495Z,55.16
2018-07-09T06:51:20.270Z,55.59
2018-07-09T06:53:49.539Z,54.66
2018-07-09T06:56:19.806Z,53.89
2018-07-09T06:58:48.745Z,53.58
2018-07-09T07:01:18.012Z,52.86
2018-07-09T07:03:47.243Z,53.05
2018-07-09T07:06:16.211Z,52.82
2018-07-09T07:08:45.233Z,52.27
2018-07-09T07:11:14.421Z,51.71
2018-07-09T07:13:43.661Z,52.14
2018-07-09T07:16:12.361Z,50.70
2018-07-09T07:18:41.494Z,51.37
2018-07-09T07:21:10.382Z,51.24
2018-07-09T07:23:39.638Z,52.10
2018-07-09T07:26:08.636Z,51.37
2018-07-09T07:28:37.541Z,51.60
2018-07-09T07:31:06.480Z,51.73
2018-07-09T07:33:35.447Z,51.00
2018-07-09T07:36:04.598Z,49.82
2018-07-09T07:38:33.446Z,50.05
2018-07-09T07:41:02.309Z,49.61
2018-07-09T07:43:31.203Z,49.37
2018-07-09T07:46:00.163Z,48.33
2018-07-09T07:48:28.996Z,48.78
2018-07-09T07:50:57.778Z,48.70
2018-07-09T07:53:26.651Z,48.26
2018-07-09T07:55:55.874Z,47.71
2018-07-09T07:58:24.652Z,48.11
2018-07-09T08:00:53.605Z,50.42
2018-07-09T08:03:22.521Z,50.85
2018-07-09T08:05:51.411Z,50.06
2018-07-09T08:08:20.282Z,49.85
2018-07-09T08:10:49.261Z,50.40
2018-07-09T08:13:31.214Z,50.52
2018-07-09T08:15:47.206Z,49.94
2018-07-09T08:18:16.296Z,51.38
2018-07-09T08:20:45.249Z,51.17
2018-07-09T08:23:14.043Z,52.09
2018-07-09T08:25:43.303Z,53.07
2018-07-09T08:28:12.132Z,52.54
2018-07-09T08:30:41.013Z,52.51
2018-07-09T08:33:10.033Z,51.82
2018-07-09T08:35:39.105Z,50.69
2018-07-09T08:38:08.123Z,51.05
2018-07-09T08:40:37.144Z,51.34
2018-07-09T08:43:06.283Z,51.90
2018-07-09T08:45:35.089Z,51.73
2018-07-09T08:48:04.416Z,51.02
2018-07-09T08:50:33.305Z,50.41
2018-07-09T08:53:02.267Z,49.29
2018-07-09T08:55:31.097Z,49.14
2018-07-09T08:58:00.362Z,49.82
2018-07-09T09:00:29.384Z,49.86
2018-07-09T09:02:58.400Z,50.36
2018-07-09T09:05:27.265Z,50.46
2018-07-09T09:07:56.185Z,50.09
2018-07-09T09:10:25.487Z,50.04
2018-07-09T09:12:54.353Z,50.06
2018-07-09T09:15:23.251Z,49.04
2018-07-09T09:17:52.074Z,47.56
2018-07-09T09:20:34.236Z,47.95
2018-07-09T09:23:07.149Z,48.41
2018-07-09T09:25:36.464Z,49.16
2018-07-09T09:28:05.661Z,48.56
2018-07-09T09:30:34.956Z,49.98
2018-07-09T09:33:04.162Z,48.76
2018-07-09T09:35:33.469Z,48.67
2018-07-09T09:38:02.921Z,48.19
2018-07-09T09:40:31.870Z,48.00
2018-07-09T09:43:00.913Z,48.27
2018-07-09T09:45:30.209Z,48.11
2018-07-09T09:47:59.266Z,47.54
2018-07-09T09:50:28.500Z,47.82
2018-07-09T09:52:57.587Z,47.21
2018-07-09T09:55:26.427Z,47.81
2018-07-09T09:57:55.450Z,46.63
2018-07-09T10:00:29.398Z,46.23
2018-07-09T10:02:58.587Z,46.34
2018-07-09T10:05:27.379Z,46.23
2018-07-09T10:07:56.360Z,45.31
2018-07-09T10:10:25.263Z,46.31
2018-07-09T10:12:54.132Z,45.66
2018-07-09T10:15:23.273Z,46.35
2018-07-09T10:17:52.607Z,45.45
2018-07-09T10:20:21.435Z,46.39
2018-07-09T10:22:50.468Z,45.82
2018-07-09T10:25:19.422Z,44.47
2018-07-09T10:27:48.673Z,45.61
2018-07-09T10:30:17.962Z,45.89
2018-07-09T10:32:46.795Z,47.11
2018-07-09T10:35:16.141Z,44.93
2018-07-09T10:37:50.784Z,45.13
2018-07-09T10:40:19.738Z,43.58
2018-07-09T10:42:48.671Z,42.56
2018-07-09T10:45:17.577Z,43.35
2018-07-09T10:47:46.565Z,42.98
2018-07-09T10:50:15.593Z,41.70
2018-07-09T10:52:44.517Z,40.88
2018-07-09T10:55:13.754Z,40.89
2018-07-09T10:57:42.683Z,40.92
2018-07-09T11:00:11.578Z,39.33
2018-07-09T11:02:40.678Z,40.59
2018-07-09T11:05:09.743Z,41.08
2018-07-09T11:07:38.700Z,39.48
2018-07-09T11:10:07.813Z,39.76
2018-07-09T11:12:36.756Z,40.35
2018-07-09T11:15:06.018Z,39.85
2018-07-09T11:17:35.012Z,40.06
2018-07-09T11:20:03.883Z,39.89
2018-07-09T11:22:32.876Z,40.45
2018-07-09T11:25:01.988Z,40.69
2018-07-09T11:27:30.856Z,39.79
2018-07-09T11:30:00.024Z,40.87
2018-07-09T11:32:31.114Z,39.95
2018-07-09T11:35:00.894Z,40.05
2018-07-09T11:37:30.420Z,40.14
2018-07-09T11:39:59.511Z,41.29
2018-07-09T11:42:28.607Z,40.76
2018-07-09T11:44:57.486Z,41.11
2018-07-09T11:47:27.085Z,40.66
2018-07-09T11:49:56.113Z,41.06
2018-07-09T11:52:25.093Z,42.28
2018-07-09T11:54:54.017Z,42.52
2018-07-09T11:57:23.208Z,41.73
2018-07-09T11:59:52.147Z,41.29
2018-07-09T12:02:21.335Z,42.97
2018-07-09T12:04:50.295Z,41.33
2018-07-09T12:07:19.409Z,39.88
2018-07-09T12:09:48.440Z,39.34
2018-07-09T12:12:17.935Z,40.06
2018-07-09T12:14:47.073Z,39.32
2018-07-09T12:17:16.083Z,39.56
2018-07-09T12:19:45.152Z,38.93
2018-07-09T12:22:14.069Z,39.22
2018-07-09T12:24:43.798Z,37.83
2018-07-09T12:27:12.965Z,37.80
2018-07-09T12:29:42.039Z,36.39
2018-07-09T12:32:11.145Z,36.32
2018-07-09T12:34:39.914Z,34.33
2018-07-09T12:37:09.197Z,32.95
2018-07-09T12:39:38.369Z,30.89
2018-07-09T12:42:07.329Z,31.41
2018-07-09T12:44:36.345Z,30.72
2018-07-09T12:47:05.526Z,30.77
2018-07-09T12:49:34.591Z,29.71
2018-07-09T12:52:03.386Z,30.03
2018-07-09T12:54:32.294Z,31.65
2018-07-09T12:57:01.471Z,32.41
2018-07-09T12:59:30.498Z,30.55
2018-07-09T13:02:00.155Z,28.60
2018-07-09T13:04:29.047Z,28.63
2018-07-09T13:06:58.468Z,27.89
2018-07-09T13:09:27.506Z,27.95
2018-07-09T13:11:56.400Z,26.88
2018-07-09T13:14:25.428Z,27.64
2018-07-09T13:16:54.339Z,27.45
2018-07-09T13:19:23.325Z,26.84
2018-07-09T13:21:52.421Z,25.52
2018-07-09T13:24:21.337Z,26.42
2018-07-09T13:26:50.320Z,28.79
2018-07-09T13:29:19.529Z,27.49
2018-07-09T13:31:48.515Z,25.91
2018-07-09T13:34:18.429Z,26.93
2018-07-09T13:36:47.447Z,28.46
2018-07-09T13:39:16.749Z,26.26
2018-07-09T13:41:45.710Z,27.95
2018-07-09T13:44:14.843Z,30.82
2018-07-09T13:46:43.709Z,33.24
2018-07-09T13:49:12.530Z,34.41
2018-07-09T13:51:41.681Z,35.10
2018-07-09T13:54:10.487Z,35.24
2018-07-09T13:56:39.715Z,32.66
2018-07-09T13:59:08.565Z,30.85
2018-07-09T14:01:37.467Z,30.81
2018-07-09T14:04:06.914Z,30.24
2018-07-09T14:06:36.278Z,31.75
2018-07-09T14:09:05.970Z,32.17
2018-07-09T14:11:34.889Z,33.08
2018-07-09T14:14:04.216Z,33.46
2018-07-09T14:16:33.110Z,34.29
2018-07-09T14:19:06.370Z,33.89
2018-07-09T14:21:35.306Z,34.32
2018-07-09T14:24:04.385Z,34.04
2018-07-09T14:26:33.393Z,35.04
2018-07-09T14:29:02.229Z,35.85
2018-07-09T14:31:31.458Z,35.20
2018-07-09T14:34:00.362Z,35.03
2018-07-09T14:36:29.611Z,35.05
2018-07-09T14:38:58.615Z,34.77
2018-07-09T14:41:27.591Z,34.61
2018-07-09T14:43:56.443Z,34.69
2018-07-09T14:46:25.217Z,35.29
2018-07-09T14:48:54.103Z,35.13
2018-07-09T14:51:23.164Z,35.26
2018-07-09T14:53:52.578Z,35.01
2018-07-09T14:56:21.579Z,34.59
2018-07-09T14:58:51.602Z,33.59
2018-07-09T15:01:21.042Z,33.85
2018-07-09T15:03:49.871Z,34.52
2018-07-09T15:06:19.011Z,33.97
2018-07-09T15:08:47.897Z,33.34
2018-07-09T15:11:17.274Z,33.71
2018-07-09T15:13:46.040Z,34.16
2018-07-09T15:16:15.046Z,34.15
2018-07-09T15:18:43.938Z,34.21
2018-07-09T15:21:12.984Z,32.86
2018-07-09T15:23:41.934Z,32.18
2018-07-09T15:26:10.728Z,32.71
2018-07-09T15:28:39.667Z,32.92
2018-07-09T15:31:08.732Z,33.98
2018-07-09T15:33:38.131Z,33.47
2018-07-09T15:36:07.142Z,33.51
2018-07-09T15:38:36.171Z,33.60
2018-07-09T15:41:05.046Z,32.67
2018-07-09T15:43:44.934Z,33.20
2018-07-09T15:46:13.876Z,32.89
2018-07-09T15:48:42.681Z,33.43
2018-07-09T15:51:11.883Z,32.83
2018-07-09T15:53:43.940Z,32.92
2018-07-09T15:56:13.207Z,33.46
2018-07-09T15:58:42.058Z,33.85
2018-07-09T16:01:11.051Z,34.42
2018-07-09T16:03:40.167Z,34.15
2018-07-09T16:06:09.141Z,32.76
2018-07-09T16:08:38.170Z,33.48
2018-07-09T16:11:07.251Z,33.52
2018-07-09T16:13:36.258Z,34.00
2018-07-09T16:16:05.853Z,33.57
2018-07-09T16:18:36.145Z,33.84
2018-07-09T16:21:05.079Z,33.79
2018-07-09T16:23:33.842Z,34.30
2018-07-09T16:26:03.144Z,34.56
2018-07-09T16:28:32.227Z,34.64
2018-07-09T16:31:01.418Z,34.37
2018-07-09T16:33:30.500Z,33.43
2018-07-09T16:35:59.633Z,33.21
2018-07-09T16:38:28.742Z,33.01
2018-07-09T16:40:58.034Z,32.43
2018-07-09T16:43:26.953Z,33.02
2018-07-09T16:45:55.846Z,33.37
2018-07-09T16:48:24.729Z,33.56
2018-07-09T16:50:53.733Z,32.93
2018-07-09T16:53:22.654Z,33.10
2018-07-09T16:55:51.524Z,32.73
2018-07-09T16:58:20.602Z,32.71
2018-07-09T17:00:49.638Z,32.90
2018-07-09T17:03:18.653Z,33.46
2018-07-09T17:05:47.629Z,33.78
2018-07-09T17:08:16.490Z,33.64
2018-07-09T17:10:45.510Z,33.28
2018-07-09T17:13:14.514Z,32.71
2018-07-09T17:15:43.374Z,32.16
2018-07-09T17:18:12.468Z,31.85
2018-07-09T17:20:41.345Z,31.28
2018-07-09T17:23:10.131Z,30.15
2018-07-09T17:25:39.298Z,29.63
2018-07-09T17:28:14.773Z,29.67
2018-07-09T17:30:43.646Z,30.10
2018-07-09T17:33:12.518Z,30.00
2018-07-09T17:35:41.449Z,30.32
2018-07-09T17:38:10.701Z,31.30
2018-07-09T17:40:39.698Z,31.62
2018-07-09T17:43:08.563Z,31.74
2018-07-09T17:45:37.536Z,32.62
2018-07-09T17:48:06.447Z,32.66
2018-07-09T17:50:35.262Z,33.31
2018-07-09T17:53:04.263Z,33.72
2018-07-09T17:55:33.274Z,34.63
2018-07-09T17:58:02.598Z,34.57
2018-07-09T18:00:31.826Z,35.27
2018-07-09T18:03:01.046Z,36.20
2018-07-09T18:05:30.127Z,36.34
2018-07-09T18:07:59.147Z,36.98
2018-07-09T18:10:27.926Z,36.90
2018-07-09T18:12:57.052Z,36.93
2018-07-09T18:15:25.999Z,36.34
2018-07-09T18:17:54.932Z,36.17
2018-07-09T18:20:23.872Z,35.28
2018-07-09T18:22:53.017Z,34.46
2018-07-09T18:25:22.253Z,35.28
2018-07-09T18:27:51.390Z,35.60
2018-07-09T18:30:20.883Z,36.29
2018-07-09T18:32:49.777Z,36.63
2018-07-09T18:35:18.828Z,36.27
2018-07-09T18:37:47.832Z,35.92
2018-07-09T18:40:16.699Z,34.44
2018-07-09T18:42:45.986Z,34.45
2018-07-09T18:45:14.914Z,33.89
2018-07-09T18:47:43.758Z,33.14
2018-07-09T18:50:12.643Z,32.00
2018-07-09T18:52:41.362Z,31.94
2018-07-09T18:55:10.405Z,31.61
2018-07-09T18:57:40.614Z,31.52
2018-07-09T19:00:09.524Z,31.52
2018-07-09T19:02:38.473Z,31.27
2018-07-09T19:05:07.401Z,31.57
2018-07-09T19:07:36.402Z,30.59
2018-07-09T19:10:05.344Z,30.27
2018-07-09T19:12:35.502Z,30.14
2018-07-09T19:15:06.150Z,30.38
2018-07-09T19:18:13.322Z,30.14
2018-07-09T19:21:25.661Z,30.28
2018-07-09T19:23:53.706Z,30.36
2018-07-09T19:26:21.478Z,30.38
2018-07-09T19:28:49.197Z,30.14
2018-07-09T19:31:16.879Z,30.32
2018-07-09T19:33:44.548Z,30.31
2018-07-09T19:36:11.981Z,30.15
2018-07-09T19:38:39.669Z,30.12
2018-07-09T19:41:07.732Z,30.63
2018-07-09T19:43:35.470Z,30.54
2018-07-09T19:46:02.948Z,30.24
2018-07-09T19:48:30.410Z,30.57
2018-07-09T19:50:57.958Z,30.43
2018-07-09T19:53:25.492Z,31.12
2018-07-09T19:55:52.965Z,30.70
2018-07-09T19:58:20.464Z,31.24
2018-07-09T20:00:48.102Z,30.83
2018-07-09T20:03:15.517Z,31.65
2018-07-09T20:05:43.108Z,31.43
2018-07-09T20:08:10.602Z,31.21
2018-07-09T20:10:43.175Z,31.39
2018-07-09T20:13:15.934Z,31.49
2018-07-09T20:15:48.619Z,31.63
2018-07-09T20:18:16.071Z,31.89
2018-07-09T20:20:43.485Z,31.97
2018-07-09T20:23:11.132Z,32.90
2018-07-09T20:25:38.966Z,32.20
2018-07-09T20:28:06.654Z,32.08
2018-07-09T20:30:34.081Z,32.29
2018-07-09T20:33:01.522Z,32.13
2018-07-09T20:35:29.055Z,32.43
2018-07-09T20:37:56.518Z,32.64
2018-07-09T20:40:23.984Z,32.40
2018-07-09T20:42:51.438Z,32.63
2018-07-09T20:45:19.241Z,32.85
2018-07-09T20:47:46.728Z,33.11
2018-07-09T20:50:14.139Z,33.19
2018-07-09T20:52:41.589Z,33.28
2018-07-09T20:55:09.063Z,33.83
2018-07-09T20:57:36.733Z,33.84
2018-07-09T21:00:04.339Z,33.88
2018-07-09T21:02:31.742Z,33.64
2018-07-09T21:04:59.359Z,33.87
2018-07-09T21:07:26.745Z,33.93
2018-07-09T21:09:54.245Z,34.04
2018-07-09T21:12:21.702Z,34.59
2018-07-09T21:14:49.093Z,34.01
2018-07-09T21:17:16.594Z,34.25
2018-07-09T21:19:44.178Z,34.61
2018-07-09T21:22:11.941Z,34.94
2018-07-09T21:24:39.322Z,35.14
2018-07-09T21:27:06.814Z,35.63
2018-07-09T21:29:34.238Z,35.89
2018-07-09T21:32:01.742Z,36.45
2018-07-09T21:34:29.181Z,36.79
2018-07-09T21:36:56.663Z,37.58
2018-07-09T21:39:24.202Z,37.58
2018-07-09T21:41:51.768Z,37.73
2018-07-09T21:44:19.272Z,38.18
2018-07-09T21:46:46.928Z,38.34
2018-07-09T21:49:14.399Z,38.31
2018-07-09T21:51:41.799Z,38.47
2018-07-09T21:54:09.243Z,38.54
2018-07-09T21:56:36.671Z,38.83
2018-07-09T21:59:04.318Z,39.29
2018-07-09T22:01:31.869Z,39.12
2018-07-09T22:03:59.364Z,39.06
2018-07-09T22:06:26.807Z,39.37
2018-07-09T22:08:54.244Z,39.49
2018-07-09T22:11:21.829Z,40.31
2018-07-09T22:13:49.420Z,39.89
2018-07-09T22:16:16.994Z,40.02
2018-07-09T22:18:44.688Z,40.08
2018-07-09T22:21:12.091Z,40.63
2018-07-09T22:23:39.706Z,40.88
2018-07-09T22:26:07.104Z,40.76
2018-07-09T22:28:34.681Z,40.75
2018-07-09T22:31:03.517Z,40.46
2018-07-09T22:33:32.431Z,40.80
2018-07-09T22:36:01.330Z,40.61
2018-07-09T22:38:30.210Z,41.07
2018-07-09T22:41:00.106Z,41.46
2018-07-09T22:43:40.010Z,40.46
2018-07-09T22:46:08.717Z,41.22
2018-07-09T22:48:37.685Z,41.49
2018-07-09T22:51:06.709Z,41.47
2018-07-09T22:53:35.398Z,41.10
2018-07-09T22:56:09.246Z,41.08
2018-07-09T22:58:39.458Z,41.12
2018-07-09T23:01:08.351Z,41.78
2018-07-09T23:03:37.215Z,41.29
2018-07-09T23:06:06.106Z,41.73
2018-07-09T23:08:35.031Z,41.36
2018-07-09T23:11:20.802Z,41.99
2018-07-09T23:17:12.266Z,42.35
2018-07-09T23:21:59.044Z,42.71
2018-07-09T23:24:26.933Z,43.41
2018-07-09T23:26:54.974Z,43.30
2018-07-09T23:29:22.661Z,43.11
2018-07-09T23:31:50.295Z,43.90
2018-07-09T23:34:18.289Z,43.94
2018-07-09T23:36:45.735Z,43.92
2018-07-09T23:39:13.497Z,43.93
2018-07-09T23:41:41.090Z,44.59
2018-07-09T23:44:08.561Z,44.64
2018-07-09T23:46:36.014Z,44.17
2018-07-09T23:49:03.558Z,44.48
2018-07-09T23:51:31.013Z,45.38
2018-07-09T23:53:58.537Z,47.60
2018-07-09T23:59:39.885Z,47.71
